createdAt,value
2023-07-18T00:02:12.099Z,1.58
2023-07-18T00:04:40.766Z,1.50
2023-07-18T00:07:08.049Z,1.60
2023-07-18T00:09:36.872Z,1.80
2023-07-18T00:12:04.103Z,1.70
2023-07-18T00:14:31.040Z,1.70
2023-07-18T00:16:58.337Z,1.50
2023-07-18T00:19:25.692Z,1.58
2023-07-18T00:21:52.554Z,1.45
2023-07-18T00:24:19.627Z,1.30
2023-07-18T00:26:46.560Z,1.55
2023-07-18T00:29:13.388Z,1.40
2023-07-18T00:31:40.166Z,1.42
2023-07-18T00:34:08.156Z,2.00
2023-07-18T00:36:34.865Z,1.60
2023-07-18T00:39:01.550Z,1.80
2023-07-18T00:41:28.337Z,1.67
2023-07-18T00:43:55.248Z,1.70
2023-07-18T00:46:22.751Z,1.70
2023-07-18T00:48:50.009Z,1.70
2023-07-18T00:51:17.386Z,2.03
2023-07-18T00:53:44.552Z,1.90
2023-07-18T00:56:11.578Z,2.05
2023-07-18T00:58:38.483Z,2.00
2023-07-18T01:01:08.263Z,2.00
2023-07-18T01:03:38.861Z,2.10
2023-07-18T01:06:06.784Z,2.10
2023-07-18T01:08:33.708Z,2.10
2023-07-18T01:11:00.515Z,2.10
2023-07-18T01:13:27.707Z,2.00
2023-07-18T01:15:54.924Z,1.90
2023-07-18T01:18:21.708Z,1.50
2023-07-18T01:20:49.828Z,1.60
2023-07-18T01:23:16.755Z,1.50
2023-07-18T01:25:43.889Z,1.50
2023-07-18T01:28:11.989Z,1.40
2023-07-18T01:30:39.004Z,1.50
2023-07-18T01:33:05.916Z,1.70
2023-07-18T01:35:32.933Z,1.58
2023-07-18T01:38:00.174Z,1.33
2023-07-18T01:40:27.630Z,1.50
2023-07-18T01:42:55.959Z,1.50
2023-07-18T01:45:26.991Z,1.40
2023-07-18T01:47:53.815Z,1.30
2023-07-18T01:50:21.103Z,1.40
2023-07-18T01:52:48.847Z,1.40
2023-07-18T01:55:16.649Z,1.55
2023-07-18T01:57:48.862Z,1.30
2023-07-18T02:00:20.639Z,1.48
2023-07-18T02:02:50.426Z,1.45
2023-07-18T02:05:19.860Z,1.60
2023-07-18T02:07:48.144Z,1.60
2023-07-18T02:10:16.205Z,1.50
2023-07-18T02:12:42.952Z,1.30
2023-07-18T02:15:10.500Z,1.40
2023-07-18T02:17:37.528Z,1.40
2023-07-18T02:20:07.612Z,1.30
2023-07-18T02:22:35.711Z,1.33
2023-07-18T02:25:03.886Z,1.48
2023-07-18T02:30:02.037Z,1.52
2023-07-18T02:32:30.851Z,1.60
2023-07-18T02:34:58.881Z,1.60
2023-07-18T02:37:26.401Z,1.48
2023-07-18T02:39:53.666Z,1.40
2023-07-18T02:42:21.104Z,1.50
2023-07-18T02:44:48.848Z,1.58
2023-07-18T02:47:16.238Z,1.50
2023-07-18T02:49:42.979Z,1.60
2023-07-18T02:52:10.123Z,1.58
2023-07-18T02:54:39.876Z,1.58
2023-07-18T02:59:34.079Z,1.50
2023-07-18T03:02:00.905Z,1.83
2023-07-18T03:04:28.148Z,1.60
2023-07-18T03:06:54.955Z,1.60
2023-07-18T03:09:24.868Z,1.75
2023-07-18T03:14:19.815Z,1.60
2023-07-18T03:16:46.732Z,1.50
2023-07-18T03:19:15.555Z,1.65
2023-07-18T03:21:42.379Z,1.60
2023-07-18T03:24:10.529Z,1.70
2023-07-18T03:26:40.407Z,1.67
2023-07-18T03:29:07.576Z,1.70
2023-07-18T03:31:35.078Z,1.60
2023-07-18T03:34:05.968Z,1.60
2023-07-18T03:36:32.955Z,1.70
2023-07-18T03:38:59.886Z,1.50
2023-07-18T03:41:27.061Z,1.77
2023-07-18T03:43:54.541Z,1.80
2023-07-18T03:46:22.864Z,1.98
2023-07-18T03:48:49.920Z,8.18
2023-07-18T03:51:17.419Z,1.80
2023-07-18T03:53:45.152Z,1.55
2023-07-18T03:56:12.955Z,1.73
2023-07-18T03:58:40.434Z,1.30
2023-07-18T04:01:09.603Z,1.60
2023-07-18T04:03:37.650Z,1.30
2023-07-18T04:06:04.729Z,1.40
2023-07-18T04:08:31.666Z,1.45
2023-07-18T04:11:01.609Z,1.40
2023-07-18T04:15:56.206Z,1.48
2023-07-18T04:18:23.638Z,1.48
2023-07-18T04:20:50.905Z,1.20
2023-07-18T04:23:18.466Z,1.30
2023-07-18T04:25:59.957Z,1.20
2023-07-18T04:28:31.182Z,1.27
2023-07-18T04:30:57.975Z,1.15
2023-07-18T04:33:26.036Z,1.58
2023-07-18T04:35:53.105Z,1.50
2023-07-18T04:38:20.019Z,1.40
2023-07-18T04:40:46.782Z,1.70
2023-07-18T04:43:13.573Z,1.67
2023-07-18T04:45:45.835Z,2.03
2023-07-18T04:48:17.356Z,2.10
2023-07-18T04:50:45.508Z,2.10
2023-07-18T04:53:12.793Z,2.00
2023-07-18T04:55:40.256Z,2.08
2023-07-18T04:58:08.547Z,2.30
2023-07-18T05:00:35.755Z,2.40
2023-07-18T05:03:02.728Z,2.50
2023-07-18T05:05:30.841Z,3.10
2023-07-18T05:08:03.183Z,3.00
2023-07-18T05:10:30.718Z,3.40
2023-07-18T05:12:57.867Z,3.15
2023-07-18T05:15:24.864Z,2.78
2023-07-18T05:17:51.993Z,2.78
2023-07-18T05:20:20.341Z,2.75
2023-07-18T05:22:47.463Z,3.25
2023-07-18T05:25:16.900Z,3.40
2023-07-18T05:27:44.341Z,3.30
2023-07-18T05:30:16.813Z,3.13
2023-07-18T05:32:44.267Z,3.10
2023-07-18T05:35:17.236Z,2.58
2023-07-18T05:37:45.472Z,2.50
2023-07-18T05:40:13.363Z,2.70
2023-07-18T05:42:41.996Z,2.53
2023-07-18T05:45:10.218Z,2.40
2023-07-18T05:47:38.828Z,2.78
2023-07-18T05:50:07.604Z,2.50
2023-07-18T05:52:35.548Z,2.50
2023-07-18T05:55:05.567Z,3.22
2023-07-18T05:57:32.717Z,1.75
2023-07-18T05:59:59.666Z,1.40
2023-07-18T06:02:26.596Z,1.20
2023-07-18T06:04:54.259Z,1.20
2023-07-18T06:07:21.091Z,1.00
2023-07-18T06:09:53.614Z,1.00
2023-07-18T06:12:20.582Z,0.70
2023-07-18T06:14:47.573Z,1.00
2023-07-18T06:17:15.080Z,1.60
2023-07-18T06:19:42.053Z,3.92
2023-07-18T06:22:10.568Z,5.40
2023-07-18T06:24:37.542Z,4.82
2023-07-18T06:27:04.687Z,4.00
2023-07-18T06:29:32.509Z,3.30
2023-07-18T06:32:01.184Z,3.00
2023-07-18T06:34:31.808Z,2.90
2023-07-18T06:37:03.521Z,2.40
2023-07-18T06:39:30.671Z,1.70
2023-07-18T06:41:58.808Z,1.10
2023-07-18T06:44:25.926Z,0.80
2023-07-18T06:46:52.885Z,0.80
2023-07-18T06:49:21.871Z,0.70
2023-07-18T06:51:50.545Z,0.60
2023-07-18T06:54:17.367Z,0.50
2023-07-18T06:56:45.894Z,0.50
2023-07-18T06:59:14.879Z,0.60
2023-07-18T07:01:42.639Z,0.50
2023-07-18T07:04:10.022Z,0.60
2023-07-18T07:06:42.889Z,0.60
2023-07-18T07:09:16.694Z,0.60
2023-07-18T07:11:44.788Z,1.35
2023-07-18T07:14:12.813Z,1.70
2023-07-18T07:16:40.352Z,1.23
2023-07-18T07:19:07.657Z,1.10
2023-07-18T07:21:35.080Z,0.82
2023-07-18T07:24:01.965Z,0.80
2023-07-18T07:26:28.957Z,0.70
2023-07-18T07:28:55.865Z,0.70
2023-07-18T07:31:22.934Z,0.77
2023-07-18T07:33:50.003Z,0.80
2023-07-18T07:36:17.092Z,0.93
2023-07-18T07:38:43.816Z,0.98
2023-07-18T07:41:10.668Z,1.10
2023-07-18T07:43:37.405Z,1.60
2023-07-18T07:46:05.087Z,1.50
2023-07-18T07:48:31.893Z,1.15
2023-07-18T07:51:04.900Z,1.70
2023-07-18T07:53:32.036Z,1.42
2023-07-18T07:55:58.759Z,1.25
2023-07-18T07:58:25.654Z,1.80
2023-07-18T08:00:52.649Z,1.80
2023-07-18T08:03:19.759Z,1.60
2023-07-18T08:05:46.635Z,1.40
2023-07-18T08:08:13.574Z,1.20
2023-07-18T08:10:40.790Z,1.35
2023-07-18T08:13:07.731Z,0.82
2023-07-18T08:15:34.728Z,0.90
2023-07-18T08:18:02.280Z,1.00
2023-07-18T08:20:29.346Z,1.30
2023-07-18T08:22:56.549Z,0.95
2023-07-18T08:25:23.589Z,2.08
2023-07-18T08:27:50.287Z,1.38
2023-07-18T08:30:17.283Z,1.10
2023-07-18T08:32:44.068Z,0.80
2023-07-18T08:35:11.156Z,0.90
2023-07-18T08:37:38.002Z,1.00
2023-07-18T08:40:06.627Z,1.13
2023-07-18T08:42:34.722Z,1.85
2023-07-18T08:45:04.354Z,1.30
2023-07-18T08:47:31.480Z,1.20
2023-07-18T08:50:00.080Z,1.20
2023-07-18T08:52:27.060Z,1.13
2023-07-18T08:54:54.055Z,1.48
2023-07-18T08:57:21.691Z,3.15
2023-07-18T08:59:50.289Z,1.70
2023-07-18T09:02:17.598Z,1.30
2023-07-18T09:04:47.202Z,1.40
2023-07-18T09:07:15.699Z,1.40
2023-07-18T09:09:48.329Z,1.30
2023-07-18T09:12:16.159Z,1.13
2023-07-18T09:14:43.417Z,1.33
2023-07-18T09:17:10.503Z,1.40
2023-07-18T09:19:44.859Z,1.40
2023-07-18T09:22:14.035Z,1.10
2023-07-18T09:24:42.428Z,1.10
2023-07-18T09:27:17.143Z,0.90
2023-07-18T09:29:46.229Z,2.03
2023-07-18T09:32:20.651Z,1.00
2023-07-18T09:34:54.749Z,0.95
2023-07-18T09:37:22.054Z,1.13
2023-07-18T09:39:50.208Z,1.20
2023-07-18T09:42:20.374Z,0.90
2023-07-18T09:44:51.541Z,0.98
2023-07-18T09:47:19.845Z,0.90
2023-07-18T09:49:47.450Z,1.00
2023-07-18T09:52:17.217Z,0.88
2023-07-18T09:54:44.794Z,0.90
2023-07-18T09:57:13.185Z,1.00
2023-07-18T09:59:40.996Z,1.02
2023-07-18T10:02:11.494Z,1.52
2023-07-18T10:04:39.499Z,0.80
2023-07-18T10:07:10.538Z,0.93
2023-07-18T10:09:38.673Z,0.80
2023-07-18T10:12:09.442Z,0.90
2023-07-18T10:14:50.031Z,0.80
2023-07-18T10:17:43.911Z,0.90
2023-07-18T10:20:14.153Z,1.20
2023-07-18T10:22:53.972Z,1.20
2023-07-18T10:25:21.216Z,1.67
2023-07-18T10:27:50.220Z,1.70
2023-07-18T10:30:20.017Z,1.40
2023-07-18T10:32:57.843Z,1.50
2023-07-18T10:35:27.826Z,1.42
2023-07-18T10:37:57.104Z,1.27
2023-07-18T10:40:38.080Z,1.40
2023-07-18T10:43:09.897Z,1.02
2023-07-18T10:45:41.864Z,1.40
2023-07-18T10:48:21.708Z,1.00
2023-07-18T10:50:49.778Z,0.90
2023-07-18T10:53:19.502Z,1.38
2023-07-18T10:55:47.507Z,0.82
2023-07-18T10:58:20.288Z,0.90
2023-07-18T11:00:49.224Z,0.80
2023-07-18T11:03:32.536Z,1.50
2023-07-18T11:05:59.527Z,1.80
2023-07-18T11:08:27.714Z,1.60
2023-07-18T11:11:03.828Z,1.73
2023-07-18T11:13:35.801Z,1.80
2023-07-18T11:16:09.989Z,1.88
2023-07-18T11:18:39.202Z,2.50
2023-07-18T11:21:07.302Z,2.00
2023-07-18T11:23:36.175Z,1.80
2023-07-18T11:26:14.954Z,1.23
2023-07-18T11:28:44.897Z,1.60
2023-07-18T11:31:40.471Z,1.80
2023-07-18T11:34:08.852Z,1.30
2023-07-18T11:36:37.878Z,1.13
2023-07-18T11:39:20.600Z,0.73
2023-07-18T11:41:48.348Z,0.65
2023-07-18T11:44:25.139Z,0.70
2023-07-18T11:46:54.145Z,0.60
2023-07-18T11:49:34.135Z,0.65
2023-07-18T11:54:35.643Z,0.55
2023-07-18T11:57:05.413Z,0.60
2023-07-18T11:59:33.271Z,0.60
2023-07-18T12:02:00.867Z,0.80
2023-07-18T12:04:28.104Z,0.63
2023-07-18T12:06:55.506Z,0.60
2023-07-18T12:09:22.574Z,0.60
2023-07-18T12:11:49.407Z,0.60
2023-07-18T12:14:16.272Z,0.57
2023-07-18T12:16:43.088Z,0.50
2023-07-18T12:19:10.482Z,0.60
2023-07-18T12:21:37.766Z,0.50
2023-07-18T12:24:05.612Z,0.40
2023-07-18T12:26:32.534Z,0.75
2023-07-18T12:29:00.022Z,0.68
2023-07-18T12:31:27.060Z,0.70
2023-07-18T12:33:54.319Z,0.50
2023-07-18T12:36:21.580Z,0.50
2023-07-18T12:38:49.491Z,0.40
2023-07-18T12:41:18.715Z,0.50
2023-07-18T12:43:46.151Z,0.70
2023-07-18T12:46:13.179Z,0.40
2023-07-18T12:48:50.047Z,0.40
2023-07-18T12:51:17.385Z,0.40
2023-07-18T12:53:44.404Z,0.40
2023-07-18T12:56:11.421Z,0.40
2023-07-18T12:58:38.259Z,0.40
2023-07-18T13:01:05.528Z,0.68
2023-07-18T13:03:34.188Z,0.93
2023-07-18T13:06:01.973Z,0.68
2023-07-18T13:08:29.946Z,0.40
2023-07-18T13:10:56.953Z,0.50
2023-07-18T13:13:24.218Z,0.40
2023-07-18T13:15:51.127Z,0.40
2023-07-18T13:18:18.252Z,0.40
2023-07-18T13:20:46.009Z,0.50
2023-07-18T13:23:13.112Z,0.40
2023-07-18T13:25:40.020Z,0.40
2023-07-18T13:28:06.833Z,0.40
2023-07-18T13:30:35.826Z,0.47
2023-07-18T13:33:03.000Z,0.40
2023-07-18T13:35:29.962Z,0.45
2023-07-18T13:37:58.178Z,0.45
2023-07-18T13:40:25.224Z,0.50
2023-07-18T13:42:52.248Z,0.50
2023-07-18T13:45:19.268Z,0.40
2023-07-18T13:47:46.332Z,0.60
2023-07-18T13:52:45.432Z,0.50
2023-07-18T13:55:12.266Z,0.30
2023-07-18T13:57:39.177Z,0.47
2023-07-18T14:00:06.842Z,0.30
2023-07-18T14:02:39.556Z,0.50
2023-07-18T14:05:06.895Z,0.60
2023-07-18T14:07:34.559Z,0.50
2023-07-18T14:10:01.423Z,0.50
2023-07-18T14:12:28.566Z,0.50
2023-07-18T14:14:55.418Z,0.50
2023-07-18T14:17:22.402Z,0.38
2023-07-18T14:19:49.514Z,0.38
2023-07-18T14:22:17.900Z,0.30
2023-07-18T14:24:44.678Z,0.40
2023-07-18T14:27:13.837Z,0.30
2023-07-18T14:29:42.265Z,0.30
2023-07-18T14:32:12.259Z,0.25
2023-07-18T14:34:40.488Z,0.40
2023-07-18T14:37:07.807Z,0.30
2023-07-18T14:39:39.628Z,0.40
2023-07-18T14:42:08.993Z,0.45
2023-07-18T14:44:36.586Z,0.30
2023-07-18T14:47:04.439Z,0.40
2023-07-18T14:49:31.591Z,0.30
2023-07-18T14:51:58.958Z,0.30
2023-07-18T14:54:26.079Z,0.25
2023-07-18T14:56:52.827Z,0.20
2023-07-18T14:59:19.899Z,0.30
2023-07-18T15:01:46.875Z,0.20
2023-07-18T15:04:14.050Z,0.40
2023-07-18T15:06:41.127Z,0.28
2023-07-18T15:09:08.016Z,0.28
2023-07-18T15:11:34.946Z,0.20
2023-07-18T15:14:01.952Z,0.30
2023-07-18T15:16:30.097Z,1.90
2023-07-18T15:18:56.907Z,0.40
2023-07-18T15:21:23.851Z,0.22
2023-07-18T15:23:50.631Z,0.30
2023-07-18T15:26:17.740Z,0.13
2023-07-18T15:28:45.162Z,0.30
2023-07-18T15:31:11.938Z,1.35
2023-07-18T15:33:38.726Z,0.50
2023-07-18T15:36:06.068Z,0.20
2023-07-18T15:38:33.224Z,0.30
2023-07-18T15:41:00.728Z,0.55
2023-07-18T15:43:27.479Z,0.40
2023-07-18T15:45:55.808Z,0.45
2023-07-18T15:48:22.637Z,0.40
2023-07-18T15:50:52.818Z,0.40
2023-07-18T15:53:19.796Z,0.20
2023-07-18T15:55:47.021Z,0.50
2023-07-18T15:58:13.947Z,0.25
2023-07-18T16:00:41.418Z,0.28
2023-07-18T16:03:08.369Z,0.45
2023-07-18T16:05:35.508Z,0.30
2023-07-18T16:08:02.425Z,0.57
2023-07-18T16:10:29.260Z,1.88
2023-07-18T16:12:56.125Z,0.82
2023-07-18T16:15:23.148Z,0.50
2023-07-18T16:17:49.979Z,0.45
2023-07-18T16:20:17.067Z,0.32
2023-07-18T16:22:51.253Z,0.30
2023-07-18T16:25:18.123Z,0.30
2023-07-18T16:27:47.179Z,0.30
2023-07-18T16:30:14.562Z,0.20
2023-07-18T16:32:42.170Z,0.30
2023-07-18T16:35:09.876Z,0.20
2023-07-18T16:37:36.654Z,0.28
2023-07-18T16:40:05.620Z,0.30
2023-07-18T16:42:32.698Z,0.30
2023-07-18T16:45:01.854Z,0.38
2023-07-18T16:47:28.931Z,0.30
2023-07-18T16:49:55.775Z,0.30
2023-07-18T16:52:22.528Z,0.30
2023-07-18T16:54:49.307Z,0.30
2023-07-18T16:57:17.625Z,0.30
2023-07-18T16:59:44.599Z,0.50
2023-07-18T17:02:11.570Z,0.60
2023-07-18T17:04:38.468Z,0.43
2023-07-18T17:07:05.777Z,0.30
2023-07-18T17:09:32.750Z,0.40
2023-07-18T17:12:00.564Z,0.40
2023-07-18T17:14:27.789Z,0.35
2023-07-18T17:16:54.737Z,0.30
2023-07-18T17:19:21.525Z,0.40
2023-07-18T17:21:51.171Z,0.30
2023-07-18T17:24:20.667Z,0.30
2023-07-18T17:26:49.423Z,0.63
2023-07-18T17:29:18.765Z,0.30
2023-07-18T17:31:46.066Z,0.40
2023-07-18T17:34:13.276Z,0.32
2023-07-18T17:36:40.723Z,0.40
2023-07-18T17:39:08.980Z,0.40
2023-07-18T17:41:36.138Z,0.47
2023-07-18T17:44:04.768Z,0.93
2023-07-18T17:46:32.069Z,0.70
2023-07-18T17:48:59.084Z,0.40
2023-07-18T17:51:26.193Z,0.60
2023-07-18T17:53:55.463Z,0.47
2023-07-18T17:56:23.589Z,0.50
2023-07-18T17:58:50.670Z,0.75
2023-07-18T18:01:17.849Z,0.30
2023-07-18T18:03:45.343Z,0.30
2023-07-18T18:06:12.429Z,0.40
2023-07-18T18:08:39.914Z,0.73
2023-07-18T18:11:07.347Z,1.10
2023-07-18T18:13:34.346Z,0.35
2023-07-18T18:16:08.739Z,0.40
2023-07-18T18:18:49.792Z,0.40
2023-07-18T18:23:50.023Z,0.40
2023-07-18T18:26:17.082Z,0.43
2023-07-18T18:28:44.284Z,0.40
2023-07-18T18:31:11.569Z,0.30
2023-07-18T18:33:38.663Z,0.40
2023-07-18T18:36:06.120Z,0.77
2023-07-18T18:38:33.222Z,1.10
2023-07-18T18:41:00.157Z,0.60
2023-07-18T18:43:28.723Z,0.50
2023-07-18T18:45:56.128Z,0.38
2023-07-18T18:48:31.645Z,1.70
2023-07-18T18:50:59.709Z,1.42
2023-07-18T18:53:28.699Z,0.60
2023-07-18T18:55:58.416Z,0.70
2023-07-18T19:00:53.073Z,0.38
2023-07-18T19:03:20.392Z,0.50
2023-07-18T19:05:47.895Z,0.50
2023-07-18T19:08:15.425Z,0.60
2023-07-18T19:10:56.262Z,0.43
2023-07-18T19:13:28.792Z,0.30
2023-07-18T19:15:55.793Z,0.60
2023-07-18T19:18:22.655Z,1.40
2023-07-18T19:20:49.697Z,0.40
2023-07-18T19:23:19.870Z,0.95
2023-07-18T19:25:48.174Z,0.50
2023-07-18T19:28:18.040Z,0.60
2023-07-18T19:33:12.960Z,0.40
2023-07-18T19:35:40.392Z,0.40
2023-07-18T19:38:11.037Z,0.50
2023-07-18T19:40:38.490Z,0.40
2023-07-18T19:43:06.361Z,0.40
2023-07-18T19:45:33.952Z,0.45
2023-07-18T19:48:01.491Z,0.50
2023-07-18T19:50:29.112Z,0.30
2023-07-18T19:52:56.863Z,0.38
2023-07-18T19:55:25.278Z,0.95
2023-07-18T19:57:54.879Z,0.40
2023-07-18T20:00:22.265Z,0.40
2023-07-18T20:02:49.706Z,0.40
2023-07-18T20:05:22.394Z,0.55
2023-07-18T20:07:52.133Z,0.40
2023-07-18T20:10:19.518Z,0.50
2023-07-18T20:12:46.780Z,0.40
2023-07-18T20:15:13.963Z,0.40
2023-07-18T20:17:44.481Z,0.40
2023-07-18T20:20:12.459Z,0.43
2023-07-18T20:22:39.649Z,1.63
2023-07-18T20:25:07.151Z,1.63
2023-07-18T20:27:39.249Z,1.00
2023-07-18T20:30:07.017Z,1.00
2023-07-18T20:32:37.210Z,0.55
2023-07-18T20:35:05.391Z,0.52
2023-07-18T20:37:32.394Z,0.40
2023-07-18T20:40:02.047Z,0.40
2023-07-18T20:42:31.218Z,0.50
2023-07-18T20:44:59.114Z,0.50
2023-07-18T20:47:26.036Z,0.60
2023-07-18T20:49:52.813Z,0.60
2023-07-18T20:52:22.833Z,0.30
2023-07-18T20:59:47.638Z,0.80
2023-07-18T21:02:14.594Z,2.50
2023-07-18T21:04:41.551Z,0.80
2023-07-18T21:07:08.406Z,0.50
2023-07-18T21:09:53.988Z,0.30
2023-07-18T21:13:02.086Z,0.50
2023-07-18T21:15:59.287Z,0.50
2023-07-18T21:18:38.366Z,0.30
2023-07-18T21:27:03.349Z,0.30
2023-07-18T21:29:41.248Z,0.40
2023-07-18T21:32:47.975Z,0.30
2023-07-18T21:35:26.760Z,0.30
2023-07-18T21:38:02.028Z,0.40
2023-07-18T21:40:41.199Z,0.40
2023-07-18T21:43:11.754Z,0.20
2023-07-18T21:45:41.833Z,0.30
2023-07-18T21:48:20.796Z,0.30
2023-07-18T21:51:16.387Z,0.30
2023-07-18T21:54:01.864Z,0.40
2023-07-18T21:56:58.608Z,0.40
2023-07-18T21:59:40.360Z,0.30
2023-07-18T22:02:15.000Z,0.40
2023-07-18T22:04:48.066Z,0.30
2023-07-18T22:07:23.524Z,0.40
2023-07-18T22:09:55.868Z,0.40
2023-07-18T22:12:39.267Z,0.50
2023-07-18T22:15:15.267Z,0.50
2023-07-18T22:20:30.642Z,0.50
2023-07-18T22:22:59.175Z,0.30
2023-07-18T22:25:29.306Z,0.40
2023-07-18T22:28:00.907Z,0.40
2023-07-18T22:30:28.035Z,0.38
2023-07-18T22:32:55.690Z,0.30
2023-07-18T22:35:23.097Z,0.40
2023-07-18T22:37:52.810Z,0.35
2023-07-18T22:40:20.116Z,0.30
2023-07-18T22:42:47.837Z,0.30
2023-07-18T22:45:16.794Z,0.40
2023-07-18T22:48:02.410Z,0.35
2023-07-18T22:50:38.208Z,0.30
2023-07-18T22:53:06.840Z,0.30
2023-07-18T22:55:34.091Z,0.38
2023-07-18T22:58:01.043Z,0.30
2023-07-18T23:00:28.106Z,0.30
2023-07-18T23:02:55.271Z,0.30
2023-07-18T23:05:23.037Z,0.30
2023-07-18T23:07:49.856Z,0.30
2023-07-18T23:13:01.053Z,0.30
2023-07-18T23:15:30.181Z,0.38
2023-07-18T23:17:57.519Z,0.40
2023-07-18T23:20:27.943Z,0.30
2023-07-18T23:22:56.026Z,0.30
2023-07-18T23:25:22.956Z,0.30
2023-07-18T23:27:49.732Z,0.40
2023-07-18T23:30:16.723Z,0.30
2023-07-18T23:32:43.528Z,0.40
2023-07-18T23:35:10.816Z,0.30
2023-07-18T23:37:37.669Z,0.20
2023-07-18T23:40:04.870Z,0.30
2023-07-18T23:42:31.585Z,0.30
2023-07-18T23:44:59.574Z,0.30
2023-07-18T23:47:26.488Z,0.40
2023-07-18T23:49:53.413Z,0.30
2023-07-18T23:52:20.335Z,0.32
2023-07-18T23:54:47.285Z,0.20
2023-07-18T23:57:13.994Z,0.30
2023-07-18T23:59:40.745Z,0.40
